x

Yucatan Basin - 120 Nm Ese Of Cozumel, Mx (42056) Wave Buoy

1:50am - Sat 25th Oct 2014 All times are CDT. -5 hours from GMT.

  • Sig Wave height 3.0ft
  • Swell Direction
  • Peak Period 7s
  • Average Period 5s
  • Wind
    16mph, 20mph gusts
  • Sea Temp 84°f
  • 空気 Temp 82°f
  • Sea Pressure 1009.5mb
  •  Yucatan Basin - 120 Nm Ese Of Cozumel, Mx
  •  Yucatan Basin - 120 Nm Ese Of Cozumel, Mx

More Historic Weather Station data

Upgrade to MSW Pro to gain access to the past 30 days of data for over 8000 Wavebouys and Weather Stations around the globe.

Join Pro

Comparision Forecast

View Surf forecast
   
Sat 10/25 1:50am 3ft 7s 5s 16 20 mph 1009.5mb 84f 82f
12:50am 2.5ft 6s 5s 11 16 mph 1009.9mb 84f 82f
Fri 10/24 11:50pm 3ft 6s 5s 11 16 mph 1010.2mb 84f 81f
10:50pm 3ft 7s 5s 9
mph
1010.5mb 84f 82f
9:50pm 3ft 8s 5s 11 13 mph 1010.1mb 84f 81f
8:50pm 3ft 7s 5s 11 13 mph 1010mb 84f 80f
7:50pm 3ft 7s 5s 13 16 mph 1009.1mb 84f 80f
6:50pm 3ft 7s 5s 11 16 mph 1008.5mb 84f 80f
5:50pm 3ft 7s 5s 13 16 mph 1008.2mb 84f 80f
4:50pm 2.5ft 7s 5s 11 13 mph 1007.9mb 84f 79f
3:50pm 3ft 6s 5s 11 13 mph 1007.9mb 84f 80f
2:50pm 3.5ft 7s 5s 7 9 mph 1008.1mb 84f 81f
1:50pm 3ft 6s 5s 4 7 mph 1008.5mb 84f 82f
12:50pm 3.5ft 7s 5s 7
mph
1009.1mb 84f 82f
11:50am 3.5ft 6s 5s 2 4 mph 1010mb 84f 82f
10:50am 3ft 7s 5s 4 7 mph 1010.4mb 84f 81f
9:50am 3.5ft 7s 5s  -  2 mph 1010.5mb 83f 80f
8:50am 3.5ft 6s 6s 2 4 mph 1010.9mb 83f 78f
7:50am 3.5ft 7s 6s 4 9 mph 1010.1mb 83f 78f
6:50am 3.5ft 7s 6s  -  2 mph 1008.9mb 84f 83f
5:50am 4ft 7s 6s 4 7 mph 1007.8mb 84f 82f
4:50am 4ft 7s 6s 7
mph
1007.4mb 84f 82f
3:50am 3.5ft 7s 5s 7 9 mph 1007.3mb 84f 82f
2:50am 4ft 7s 6s 4 7 mph 1007.5mb 84f 82f
1:50am 4ft 7s 6s 2 4 mph 1008.2mb 84f 82f
12:50am 4.5ft 7s 6s 4 7 mph 1008.8mb 84f 82f
Thu 10/23 11:50pm 4.5ft 7s 6s 4 7 mph 1009.3mb 84f 82f
10:50pm 4.5ft 7s 6s 7
mph
1009.6mb 84f 82f
9:50pm 4.5ft 7s 6s 7
mph
1009.1mb 84f 82f
8:50pm 4.5ft 7s 6s 7 9 mph 1008.6mb 84f 82f
7:50pm 4.5ft 6s 6s 2 4 mph 1008mb 84f 81f
6:50pm 5ft 7s 6s 4 7 mph 1007.1mb 84f 81f
5:50pm 4.5ft 7s 5s 7 9 mph 1006.7mb 83f 80f
4:50pm 5ft 7s 6s 2
mph
1006.3mb 83f 80f
3:50pm 5ft 7s 6s 2 4 mph 1007mb 83f 80f
2:50pm 5ft 7s 6s 7 9 mph 1007mb 83f 80f
1:50pm 5ft 7s 5s 4
mph
1007.8mb 82f 79f
12:50pm 4.5ft 7s 5s 2
mph
1008.1mb 82f 78f
11:50am 5ft 7s 5s 7 11 mph 1008.8mb 83f 77f
10:50am 5ft 7s 5s 13 22 mph 1008.5mb 84f 80f
9:50am 5.5ft 7s 5s 7 9 mph 1008.2mb 84f 82f
8:50am 5ft 7s 5s 18 22 mph 1007.1mb 84f 84f
6:50am 5ft 7s 5s 18 20 mph 1006.8mb 84f 84f
5:50am 5.5ft 7s 5s 16 20 mph 1006.1mb 84f 84f
4:50am 5ft 7s 5s 18 20 mph 1006mb 84f 84f
3:50am 5ft 7s 5s 16 18 mph 1006.2mb 84f 84f
2:50am 5.5ft 7s 6s 16 18 mph 1006.3mb 84f 84f
1:50am 6ft 7s 6s 13 18 mph 1007mb 84f 84f
12:50am 6ft 7s 6s 13 16 mph 1007.7mb 84f 84f
Wed 10/22 11:50pm 6ft 7s 6s 13 16 mph 1008.4mb 84f 84f
10:50pm 6.5ft 7s 6s 13 22 mph 1008.7mb 84f 84f
9:50pm 6.5ft 7s 6s 9 11 mph 1009.1mb 84f 84f
8:50pm 6ft 7s 6s 9 11 mph 1008.7mb 84f 84f
7:50pm 6ft 7s 6s 13 16 mph 1007.7mb 84f 84f
6:50pm 6.5ft 7s 6s 16 18 mph 1007.2mb 84f 84f
5:50pm 7ft 7s 6s 16 18 mph 1007.2mb 84f 84f
4:50pm 7ft 7s 6s 16 20 mph 1006.6mb 84f 84f
3:50pm 7ft 7s 5s 18 22 mph 1006.4mb 84f 84f
2:50pm 7ft 7s 5s 22 27 mph 1006.3mb 84f 84f
1:50pm 7ft 7s 5s 20 25 mph 1007mb 84f 84f
12:50pm 6.5ft 7s 5s 22 27 mph 1007.7mb 84f 84f
11:50am 6ft 7s 5s 22 27 mph 1008.7mb 84f 85f
10:50am 6ft 7s 5s 22 27 mph 1008.9mb 84f 85f
9:50am 5.5ft 7s 5s 25 29 mph 1008.4mb 84f 84f
8:50am 6ft 7s 5s 20 22 mph 1008.7mb 84f 83f
7:50am 6ft 7s 5s 22 29 mph 1007.9mb 84f 83f
6:50am 6ft 7s 5s 22 27 mph 1007.5mb 84f 84f
5:50am 6.5ft 7s 5s 18 22 mph 1006.9mb 84f 82f
4:50am 5.5ft 7s 5s 18 27 mph 1007.3mb 84f 81f
3:50am 6ft 7s 5s 20 25 mph 1006.9mb 84f 84f
2:50am 6ft 7s 5s 20 22 mph 1007.3mb 84f 84f
1:50am 5.5ft 7s 5s 20 25 mph 1007.3mb 84f 84f
12:50am 5.5ft 7s 5s 20 22 mph 1008mb 84f 84f
Tue 10/21 11:50pm 5ft 6s 5s 20 25 mph 1008.6mb 84f 84f
10:50pm 5ft 7s 5s 20 25 mph 1009.1mb 84f 84f
9:50pm 5ft 7s 5s 22 27 mph 1009mb 84f 83f
8:50pm 5ft 7s 5s 20 22 mph 1008.8mb 85f 84f
7:50pm 5.5ft 7s 5s 18 22 mph 1008.2mb 85f 83f
6:50pm 5ft 7s 5s 25 38 mph 1007.7mb 85f 82f
5:50pm 5.5ft 7s 5s 20 25 mph 1007.6mb 85f 80f
4:50pm 5.5ft 6s 5s 18 22 mph 1006.9mb 85f 83f
3:50pm 5.5ft 6s 5s 18 22 mph 1006.9mb 85f 81f
2:50pm 5ft 7s 5s 18 20 mph 1007.4mb 85f 84f
1:50pm 5.5ft 7s 5s 20 25 mph 1007.7mb 85f 84f
12:50pm 5.5ft 7s 5s 20 22 mph 1008.9mb 85f 83f
11:50am 5ft 6s 5s 18 22 mph 1010.3mb 85f 83f
10:50am 4.5ft 7s 5s 16 18 mph 1010.9mb 85f 84f
9:50am 5ft 6s 5s 18 22 mph 1010.9mb 85f 83f
8:50am 5ft 6s 5s 20 25 mph 1010.3mb 85f 84f